Time;durP1;ratioP1;P1;durP2;ratioP2;P2;SDS_P1;SDS_P2;PMS_P1;PMS_P2;Temp;Humidity;BMP_temperature;BMP_pressure;BME280_temperature;BME280_humidity;BME280_pressure;Samples;Min_cycle;Max_cycle;Signal;HPM_P1;HPM_P2
2024/03/09 00:01:12;;;;;;;63.47;39.22;;;6.90;99.90;;;7.03;81.68;100292.97;5010419;28;20542;-62
2024/03/09 00:03:40;;;;;;;57.35;37.97;;;6.90;99.90;;;6.89;82.68;100292.09;5010141;28;20080;-65
2024/03/09 00:06:12;;;;;;;63.17;39.00;;;6.80;99.90;;;6.98;81.93;100288.59;5010104;28;20141;-64
2024/03/09 00:08:43;;;;;;;64.93;40.30;;;6.80;99.90;;;6.99;82.14;100287.72;5009977;28;20061;-64
2024/03/09 00:11:11;;;;;;;60.03;39.47;;;6.80;99.90;;;7.05;82.57;100279.81;5010581;28;20049;-64
2024/03/09 00:13:41;;;;;;;62.15;40.05;;;6.90;99.90;;;6.99;82.30;100288.59;5010057;28;20046;-63
2024/03/09 00:16:09;;;;;;;61.53;38.43;;;6.80;99.90;;;7.05;82.44;100287.72;5010126;28;20050;-63
2024/03/09 00:18:39;;;;;;;61.95;39.75;;;6.90;99.90;;;6.91;82.41;100281.59;5009987;28;20493;-63
2024/03/09 00:21:14;;;;;;;60.33;38.35;;;6.80;99.90;;;6.90;82.99;100282.44;5010518;28;20254;-62
2024/03/09 00:23:43;;;;;;;60.67;39.53;;;6.80;99.90;;;6.85;82.68;100284.22;5010449;28;20045;-62
2024/03/09 00:26:12;;;;;;;61.50;39.10;;;6.70;99.90;;;6.88;82.44;100289.47;5010166;28;20038;-64
2024/03/09 00:28:41;;;;;;;59.25;39.25;;;6.70;99.90;;;6.91;82.86;100284.22;5009974;28;20125;-61
2024/03/09 00:31:11;;;;;;;61.73;40.20;;;6.70;99.90;;;6.90;82.74;100282.44;5009950;28;20410;-62
2024/03/09 00:33:42;;;;;;;62.78;42.38;;;6.70;99.90;;;7.01;82.62;100281.59;5009777;28;20057;-63
2024/03/09 00:36:11;;;;;;;;;;;6.80;99.90;;;6.83;82.88;100265.78;5010601;28;20046;-62
2024/03/09 00:38:43;;;;;;;66.25;41.30;;;6.70;99.90;;;6.80;83.27;100268.44;5010867;28;20001;-61
2024/03/09 00:41:13;;;;;;;65.85;39.70;;;6.70;99.90;;;6.75;83.21;100271.94;5013663;28;20208;-61
2024/03/09 00:43:46;;;;;;;62.63;40.70;;;6.60;99.90;;;6.77;83.22;100265.81;5013823;28;20046;-63
2024/03/09 00:46:15;;;;;;;59.95;39.50;;;6.60;99.90;;;6.85;83.35;100266.66;5013841;28;20402;-62
2024/03/09 00:48:44;;;;;;;62.00;40.42;;;6.70;99.90;;;6.80;83.16;100264.91;5013584;28;20112;-61
2024/03/09 00:51:13;;;;;;;65.80;39.72;;;6.70;99.90;;;6.76;83.63;100261.41;5013346;28;20462;-61
2024/03/09 00:53:43;;;;;;;62.03;40.15;;;6.60;99.90;;;6.61;84.09;100257.88;5013413;28;20126;-62
2024/03/09 00:56:11;;;;;;;64.47;41.15;;;6.50;99.90;;;6.45;84.34;100229.84;5013507;28;20061;-63
2024/03/09 00:58:40;;;;;;;71.00;41.58;;;6.40;99.90;;;6.53;84.61;100241.22;5013222;28;20113;-62
2024/03/09 01:01:09;;;;;;;65.45;41.95;;;6.40;99.90;;;6.57;84.81;100241.25;5013191;28;20053;-61
2024/03/09 01:03:38;;;;;;;60.13;38.63;;;6.40;99.90;;;6.49;84.93;100240.34;5013702;28;20136;-62
2024/03/09 01:06:07;;;;;;;63.90;39.85;;;6.40;99.90;;;6.44;85.38;100235.97;5013110;28;20058;-64
2024/03/09 01:08:39;;;;;;;66.65;41.28;;;6.30;99.90;;;6.45;85.03;100225.47;5013130;28;20077;-62
2024/03/09 01:11:09;;;;;;;64.18;40.88;;;6.30;99.90;;;6.39;85.48;100234.22;5013036;28;20066;-62
2024/03/09 01:13:37;;;;;;;66.55;41.80;;;6.30;99.90;;;6.37;85.32;100228.09;5013150;28;20132;-62
2024/03/09 01:16:07;;;;;;;64.97;40.47;;;6.30;99.90;;;6.32;85.47;100223.69;5013260;28;20041;-64
2024/03/09 01:18:35;;;;;;;65.03;41.10;;;6.20;99.90;;;6.21;86.26;100223.66;5013159;28;20050;-62
2024/03/09 01:21:07;;;;;;;68.13;42.08;;;6.10;99.90;;;6.30;85.97;100221.06;5013130;28;20051;-61
2024/03/09 01:23:35;;;;;;;63.17;41.10;;;6.10;99.90;;;6.19;86.15;100207.03;4995432;28;20041;-64
2024/03/09 01:26:04;;;;;;;68.38;41.63;;;6.10;99.90;;;6.24;86.73;100217.53;5012967;28;20116;-62
2024/03/09 01:28:34;;;;;;;70.65;42.15;;;6.10;99.90;;;6.28;86.19;100212.31;5013069;28;20053;-62
2024/03/09 01:31:04;;;;;;;70.65;43.20;;;6.10;99.90;;;6.13;86.82;100212.28;5013081;28;20045;-63
2024/03/09 01:33:33;;;;;;;69.00;41.97;;;6.00;99.90;;;6.18;86.75;100205.28;5012942;28;20180;-62
2024/03/09 01:36:01;;;;;;;67.95;43.30;;;6.00;99.90;;;6.31;86.29;100209.69;5012639;28;20042;-62
2024/03/09 01:38:30;;;;;;;67.38;41.90;;;6.10;99.90;;;6.29;86.69;100195.66;4994732;28;20053;-64
2024/03/09 01:40:58;;;;;;;65.45;40.75;;;6.20;99.90;;;6.23;86.34;100200.91;5012579;28;20065;-63
2024/03/09 01:43:27;;;;;;;66.15;41.95;;;6.10;99.90;;;6.22;86.74;100201.78;5012477;28;20100;-62
2024/03/09 01:45:57;;;;;;;67.15;42.15;;;6.10;99.90;;;6.17;86.83;100193.03;5012381;28;20068;-62
2024/03/09 01:48:26;;;;;;;69.07;41.95;;;6.10;99.90;;;6.14;87.63;100189.50;5012621;28;20120;-62
2024/03/09 01:50:54;;;;;;;70.82;44.00;;;6.00;99.90;;;6.25;87.47;100179.94;5011912;28;20050;-63
2024/03/09 01:53:24;;;;;;;66.03;40.85;;;6.10;99.90;;;6.33;86.19;100191.28;5012455;28;20073;-61
2024/03/09 01:55:58;;;;;;;70.60;44.33;;;6.20;99.90;;;6.23;86.87;100184.31;5012095;28;20054;-63
2024/03/09 01:58:29;;;;;;;71.78;44.30;;;6.10;99.90;;;6.27;87.24;100193.94;5012270;28;20380;-62
2024/03/09 02:01:06;;;;;;;67.57;41.85;;;6.10;99.90;;;6.15;87.49;100180.78;5012153;28;20140;-62
2024/03/09 02:03:35;;;;;;;72.55;43.80;;;6.00;99.90;;;6.34;86.82;100178.19;5012340;28;20494;-65
2024/03/09 02:06:05;;;;;;;71.93;44.10;;;6.20;99.90;;;6.41;86.08;100159.81;5012404;28;20078;-61
2024/03/09 02:08:34;;;;;;;68.60;40.90;;;6.30;99.90;;;6.60;86.11;100170.31;5012528;28;20066;-62
2024/03/09 02:11:03;;;;;;;66.82;41.13;;;6.40;99.90;;;6.39;86.08;100160.69;5012537;28;20042;-62
2024/03/09 02:13:32;;;;;;;66.53;41.88;;;6.30;99.90;;;6.57;85.41;100156.31;5012483;28;20465;-62
2024/03/09 02:16:02;;;;;;;68.07;41.72;;;6.40;99.90;;;6.43;85.79;100152.81;5012703;28;20070;-62
2024/03/09 02:18:30;;;;;;;;;;;6.30;99.90;;;6.41;86.02;100160.66;5012961;28;20050;-61
2024/03/09 02:21:00;;;;;;;68.82;40.65;;;6.30;99.90;;;6.19;86.49;100148.41;5012223;28;20444;-63
2024/03/09 02:23:31;;;;;;;69.50;41.35;;;6.10;99.90;;;6.06;87.27;100151.88;5012713;28;20440;-63
2024/03/09 02:26:02;;;;;;;72.50;43.28;;;6.00;99.90;;;5.98;87.84;100143.13;5012252;28;20045;-62
2024/03/09 02:28:31;;;;;;;68.30;41.55;;;5.90;99.90;;;5.96;88.16;100139.63;5012477;28;20041;-61
2024/03/09 02:31:00;;;;;;;67.70;42.22;;;5.90;99.90;;;6.06;88.12;100142.25;5012155;28;20042;-61
2024/03/09 02:33:29;;;;;;;70.35;42.30;;;5.90;99.90;;;5.85;88.50;100136.06;5012085;28;20402;-62
2024/03/09 02:35:57;;;;;;;71.07;42.00;;;5.80;99.90;;;5.99;88.71;100134.38;4994666;28;20414;-62
2024/03/09 02:38:26;;;;;;;74.70;45.20;;;5.80;99.90;;;6.22;88.48;100125.66;5011773;28;20050;-64
2024/03/09 02:40:55;;;;;;;72.05;44.13;;;6.00;99.90;;;5.97;88.85;100112.50;5011821;28;20042;-63
2024/03/09 02:43:25;;;;;;;69.00;43.30;;;5.90;99.90;;;6.08;88.85;100127.38;4994558;28;20474;-61
2024/03/09 02:45:54;;;;;;;;;;;5.90;99.90;;;6.09;88.78;100107.25;5012398;28;20049;-62
2024/03/09 02:48:23;;;;;;;71.00;41.42;;;6.00;99.90;;;6.08;89.13;100113.38;5011907;28;19921;-62
2024/03/09 02:50:51;;;;;;;67.18;41.88;;;5.90;99.90;;;6.13;88.80;100112.53;5012043;28;20042;-61
2024/03/09 02:53:20;;;;;;;65.10;41.35;;;6.00;99.90;;;6.10;88.95;100112.50;5011971;28;20045;-63
2024/03/09 02:55:49;;;;;;;64.95;41.45;;;6.00;99.90;;;6.00;88.91;100113.38;5011589;28;20391;-61
2024/03/09 02:58:18;;;;;;;71.25;41.95;;;5.90;99.90;;;5.87;89.48;100098.47;5012168;28;20483;-62
2024/03/09 03:00:48;;;;;;;70.80;43.47;;;5.80;99.90;;;5.95;89.11;100112.50;5010894;28;20045;-62
2024/03/09 03:06:03;;;;;;;75.55;43.80;;;5.90;99.90;;;6.10;88.97;100128.25;4994194;28;20542;-64
2024/03/09 03:08:33;;;;;;;74.28;42.63;;;5.90;99.90;;;5.94;89.22;100117.75;4994087;28;20142;-61
2024/03/09 03:11:02;;;;;;;71.28;43.53;;;5.80;99.90;;;5.98;88.91;100127.38;5012087;28;20056;-62
2024/03/09 03:13:30;;;;;;;68.47;41.55;;;5.90;99.90;;;6.08;89.48;100127.38;5011878;28;20438;-61
2024/03/09 03:16:00;;;;;;;70.18;42.10;;;5.90;99.90;;;6.08;89.09;100118.63;5011356;28;20046;-62
2024/03/09 03:18:29;;;;;;;66.50;41.55;;;5.90;99.90;;;6.05;89.58;100119.50;4993867;28;20054;-62
2024/03/09 03:20:58;;;;;;;67.35;40.15;;;5.90;99.90;;;6.12;89.05;100116.00;5011274;28;20042;-62
2024/03/09 03:23:27;;;;;;;67.30;42.03;;;5.90;99.90;;;6.13;89.37;100104.66;4993917;28;20160;-62
2024/03/09 03:25:55;;;;;;;67.05;40.95;;;6.00;99.90;;;6.03;89.19;100108.13;5011209;28;20543;-62
2024/03/09 03:28:23;;;;;;;75.80;43.08;;;6.00;99.90;;;6.20;88.91;100098.53;5011242;28;20046;-62
2024/03/09 03:30:52;;;;;;;70.85;42.67;;;6.00;99.90;;;6.26;88.50;100101.16;5011072;28;20111;-61
2024/03/09 03:33:22;;;;;;;66.15;41.63;;;6.20;99.90;;;6.17;88.89;100097.66;5011136;28;20407;-62
2024/03/09 03:35:51;;;;;;;66.97;41.28;;;6.10;99.90;;;6.41;88.26;100107.28;5011286;28;20446;-64
2024/03/09 03:38:19;;;;;;;67.50;41.15;;;6.20;99.90;;;6.32;88.32;100102.91;5010857;28;20062;-61
2024/03/09 03:40:51;;;;;;;66.28;41.90;;;6.20;99.90;;;6.33;88.33;100104.63;4993547;28;20104;-62
2024/03/09 03:43:20;;;;;;;67.38;42.22;;;6.20;99.90;;;6.31;87.99;100088.88;5010995;28;20077;-61
2024/03/09 03:45:48;;;;;;;67.20;41.80;;;6.20;99.90;;;6.36;87.93;100102.91;5011219;28;20568;-61
2024/03/09 03:48:19;;;;;;;66.93;41.67;;;6.20;99.90;;;6.44;88.18;100100.28;5011451;28;20053;-62
2024/03/09 03:50:49;;;;;;;66.50;41.55;;;6.30;99.90;;;6.38;87.44;100095.91;5010959;28;20056;-61
2024/03/09 03:53:17;;;;;;;67.60;41.78;;;6.30;99.90;;;6.49;87.72;100088.00;5010900;28;20069;-61
2024/03/09 03:55:46;;;;;;;66.07;41.25;;;6.40;99.90;;;6.34;87.77;100090.66;5010812;28;20050;-63
2024/03/09 03:58:17;;;;;;;69.73;42.90;;;6.30;99.90;;;6.32;87.98;100067.03;5011011;28;20103;-64
2024/03/09 04:00:47;;;;;;;61.03;40.03;;;6.30;99.90;;;6.41;87.59;100078.41;5010843;28;20699;-61
2024/03/09 04:03:17;;;;;;;65.25;40.25;;;6.30;99.90;;;6.35;87.70;100090.63;5011131;28;20045;-62
2024/03/09 04:05:48;;;;;;;66.47;40.42;;;6.30;99.90;;;6.30;88.41;100078.41;5010791;28;20038;-61
2024/03/09 04:08:17;;;;;;;65.80;39.78;;;6.20;99.90;;;6.29;88.26;100080.13;5010817;28;20074;-63
2024/03/09 04:10:48;;;;;;;63.88;40.67;;;6.20;99.90;;;6.35;88.56;100081.88;4993168;28;20053;-62
2024/03/09 04:13:16;;;;;;;;;;;6.10;99.90;;;6.28;88.04;100054.78;5013802;28;20073;-62
2024/03/09 04:15:45;;;;;;;63.15;40.60;;;6.30;99.90;;;6.44;87.70;100084.53;4997283;28;20289;-62
2024/03/09 04:18:14;;;;;;;63.90;39.70;;;6.30;99.90;;;6.35;88.47;100077.50;5014626;28;20446;-62
2024/03/09 04:20:43;;;;;;;68.38;39.25;;;6.20;99.90;;;6.18;88.46;100074.03;5014462;28;20088;-63
2024/03/09 04:23:16;;;;;;;66.70;40.65;;;6.10;99.90;;;6.22;88.48;100080.13;5014544;28;20403;-62
2024/03/09 04:25:46;;;;;;;68.57;43.03;;;6.10;99.90;;;6.37;88.33;100067.00;5014562;28;20173;-63
2024/03/09 04:28:20;;;;;;;64.18;39.75;;;6.20;99.90;;;6.26;87.97;100069.66;5014607;28;20052;-62
2024/03/09 04:30:51;;;;;;;65.18;40.35;;;6.20;99.90;;;6.35;88.33;100071.38;5014430;28;20506;-63
2024/03/09 04:33:21;;;;;;;67.05;40.63;;;6.20;99.90;;;6.31;87.86;100067.88;5014411;28;20038;-63
2024/03/09 04:35:50;;;;;;;64.45;40.33;;;6.20;99.90;;;6.30;88.14;100042.50;5014364;28;20533;-63
2024/03/09 04:38:20;;;;;;;65.55;40.35;;;6.20;99.90;;;6.47;88.53;100055.63;5014168;28;20046;-61
2024/03/09 04:40:49;;;;;;;61.90;40.25;;;6.30;99.90;;;6.44;88.16;100049.50;5014319;28;20046;-62
2024/03/09 04:43:20;;;;;;;64.68;40.70;;;6.30;99.90;;;6.52;87.87;100050.38;5014270;28;20120;-61
2024/03/09 04:45:50;;;;;;;66.18;40.10;;;6.40;99.90;;;6.58;87.47;100045.09;5014669;28;20046;-63
2024/03/09 04:48:19;;;;;;;64.95;40.28;;;6.40;99.90;;;6.32;88.56;100058.25;5014109;28;20046;-63
2024/03/09 04:50:48;;;;;;;65.25;40.97;;;6.30;99.90;;;6.25;88.60;100049.50;5014066;28;20037;-63
2024/03/09 04:53:19;;;;;;;65.93;40.88;;;6.10;99.90;;;6.54;87.96;100048.63;5013978;28;20038;-62
2024/03/09 04:55:48;;;;;;;68.55;42.35;;;6.30;99.90;;;6.46;87.57;100035.50;5014388;28;20050;-63
2024/03/09 04:58:19;;;;;;;60.78;37.22;;;6.30;99.90;;;6.35;87.72;100006.59;5013933;28;20049;-63
2024/03/09 05:00:47;;;;;;;64.00;40.70;;;6.40;99.90;;;6.52;88.00;100042.50;5014282;28;20129;-61
2024/03/09 05:03:17;;;;;;;66.43;40.70;;;6.30;99.90;;;6.55;87.54;100037.22;5013937;28;20050;-62
2024/03/09 05:05:46;;;;;;;66.63;41.53;;;6.40;99.90;;;6.56;87.55;100033.72;4996384;28;20762;-61
2024/03/09 05:08:15;;;;;;;67.10;41.15;;;6.40;99.90;;;6.49;87.83;100037.22;5013702;28;20049;-63
2024/03/09 05:10:45;;;;;;;62.00;39.85;;;6.40;99.90;;;6.53;87.61;100028.47;5013629;28;20053;-62
2024/03/09 05:13:14;;;;;;;66.45;41.97;;;6.40;99.90;;;6.33;88.41;100023.22;5013575;28;20101;-63
2024/03/09 05:15:42;;;;;;;66.00;41.80;;;6.30;99.90;;;6.30;88.73;100029.38;5013538;28;20042;-63
2024/03/09 05:18:11;;;;;;;65.07;41.30;;;6.20;99.90;;;6.60;88.18;100014.47;5013779;28;20053;-61
2024/03/09 05:20:40;;;;;;;61.83;39.95;;;6.40;99.90;;;6.70;87.58;100021.41;5013502;28;20038;-61
2024/03/09 05:23:10;;;;;;;64.50;39.97;;;6.50;99.90;;;6.70;87.67;100026.66;5013736;28;20499;-64
2024/03/09 05:25:46;;;;;;;68.30;41.33;;;6.60;99.90;;;6.76;87.45;100017.03;5012981;28;20066;-64
2024/03/09 05:28:19;;;;;;;64.65;40.33;;;6.60;99.90;;;6.58;87.74;100003.94;5013330;28;20042;-62
2024/03/09 05:30:48;;;;;;;66.07;40.40;;;6.60;99.90;;;6.45;88.09;100024.97;5013347;28;20057;-65
2024/03/09 05:33:17;;;;;;;64.28;40.90;;;6.40;99.90;;;6.43;88.58;100019.72;5013269;28;20038;-64
2024/03/09 05:35:45;;;;;;;65.75;40.47;;;6.30;99.90;;;6.61;88.23;100017.06;5013864;28;20126;-61
2024/03/09 05:38:14;;;;;;;63.47;41.20;;;6.40;99.90;;;6.50;88.67;100023.22;5012885;28;20081;-62
2024/03/09 05:40:43;;;;;;;68.40;40.95;;;6.40;99.90;;;6.44;88.88;100016.25;4995585;28;20050;-62
2024/03/09 05:43:13;;;;;;;64.85;37.95;;;6.30;99.90;;;6.18;89.19;100013.63;5013000;28;20067;-61
2024/03/09 05:45:42;;;;;;;67.30;39.85;;;6.10;99.90;;;6.25;88.86;100011.91;5013130;28;20103;-62
2024/03/09 05:48:10;;;;;;;63.58;40.28;;;6.10;99.90;;;6.24;89.17;100016.25;5013200;28;20088;-61
2024/03/09 05:50:39;;;;;;;69.10;41.65;;;6.10;99.90;;;6.20;89.25;100019.75;5013446;28;20076;-62
2024/03/09 05:53:08;;;;;;;67.28;40.75;;;6.20;99.90;;;6.21;89.49;100020.66;5012829;28;20096;-63
2024/03/09 05:55:43;;;;;;;63.63;39.45;;;6.10;99.90;;;6.29;90.03;100009.25;5012993;28;20073;-61
2024/03/09 05:58:13;;;;;;;65.75;40.60;;;6.10;99.90;;;6.39;89.48;100024.13;5013067;28;20057;-61
2024/03/09 06:00:42;;;;;;;64.00;39.30;;;6.20;99.90;;;6.40;89.49;100019.75;5012972;28;20116;-62
2024/03/09 06:03:12;;;;;;;66.07;42.92;;;6.20;99.90;;;6.34;89.50;100015.38;5012838;28;20042;-62
2024/03/09 06:05:42;;;;;;;59.95;39.25;;;6.20;99.90;;;6.29;90.01;100011.00;5012816;28;20041;-61
2024/03/09 06:08:10;;;;;;;62.00;39.00;;;6.10;99.90;;;6.36;89.53;100012.75;5012522;28;20123;-61
2024/03/09 06:10:39;;;;;;;67.80;40.92;;;6.20;99.90;;;6.36;89.20;100018.88;5012756;28;20038;-62
2024/03/09 06:13:19;;;;;;;65.93;40.80;;;6.20;99.90;;;6.41;89.39;100007.50;5012477;28;20125;-63
2024/03/09 06:15:48;;;;;;;57.65;38.97;;;6.30;99.90;;;6.64;88.50;100016.19;5012496;28;20124;-62
2024/03/09 06:18:22;;;;;;;60.33;39.60;;;6.50;99.90;;;6.86;88.15;100016.13;5012540;28;20104;-62
2024/03/09 06:20:51;;;;;;;67.35;41.42;;;6.60;99.90;;;6.74;87.56;100010.03;5012448;28;20074;-63
2024/03/09 06:23:19;;;;;;;62.67;39.90;;;6.60;99.90;;;6.83;87.56;100016.13;4994943;28;20123;-61
2024/03/09 06:25:48;;;;;;;66.20;41.47;;;6.70;99.90;;;6.79;87.75;100003.00;5012264;28;20465;-62
2024/03/09 06:28:17;;;;;;;62.10;38.65;;;6.70;99.90;;;6.93;87.31;100011.75;5012108;28;20045;-63
2024/03/09 06:30:47;;;;;;;64.05;41.05;;;6.80;99.90;;;6.91;87.08;100011.72;5012442;28;20441;-63
2024/03/09 06:33:17;;;;;;;66.00;40.88;;;6.80;99.90;;;6.65;87.41;100005.69;4994752;28;20054;-62
2024/03/09 06:35:46;;;;;;;;;;;6.60;99.90;;;6.41;89.12;100012.75;5012610;28;20078;-63
2024/03/09 06:38:15;;;;;;;70.80;41.25;;;6.40;99.90;;;6.28;89.83;100004.88;5011806;28;19921;-62
2024/03/09 06:40:45;;;;;;;63.90;40.03;;;6.20;99.90;;;6.31;90.38;100007.50;4994536;28;20183;-61
2024/03/09 06:43:16;;;;;;;68.18;41.75;;;6.20;99.90;;;6.30;89.99;100011.00;5012086;28;20034;-61
2024/03/09 06:45:49;;;;;;;67.90;41.63;;;6.20;99.90;;;6.36;89.97;99989.13;4994518;28;20517;-64
2024/03/09 06:48:23;;;;;;;66.90;40.97;;;6.30;99.90;;;6.19;91.07;100006.66;5011875;28;20053;-61
2024/03/09 06:50:52;;;;;;;64.03;39.90;;;6.10;99.90;;;6.21;90.97;100024.13;5011888;28;20039;-63
2024/03/09 06:53:25;;;;;;;64.22;40.85;;;6.10;99.90;;;6.23;91.91;100013.66;5011655;28;20495;-62
2024/03/09 06:55:53;;;;;;;67.38;40.30;;;6.10;99.90;;;6.21;91.41;100021.50;5011701;28;20045;-62
2024/03/09 06:58:22;;;;;;;64.68;40.90;;;6.10;99.90;;;6.32;91.96;100017.13;5011823;28;20069;-62
2024/03/09 07:00:52;;;;;;;68.32;41.75;;;6.10;99.90;;;6.18;91.93;100011.00;4994116;28;20568;-61
2024/03/09 07:03:20;;;;;;;65.68;39.50;;;6.10;99.90;;;6.46;91.46;100018.84;5011504;28;20095;-64
2024/03/09 07:05:49;;;;;;;67.45;40.53;;;6.30;99.90;;;6.27;90.54;100024.13;5011760;28;20081;-61
2024/03/09 07:08:21;;;;;;;64.32;40.45;;;6.20;99.90;;;6.15;92.05;100010.16;4994124;28;20074;-63
2024/03/09 07:10:50;;;;;;;63.17;40.63;;;6.10;99.90;;;6.45;91.56;100004.84;5011682;28;20148;-63
2024/03/09 07:13:19;;;;;;;62.33;37.83;;;6.20;99.90;;;6.52;91.07;100005.72;5011518;28;20050;-62
2024/03/09 07:15:48;;;;;;;63.53;40.10;;;6.40;99.90;;;6.73;90.41;100013.53;5011405;28;20046;-63
2024/03/09 07:18:18;;;;;;;66.13;39.55;;;6.50;99.90;;;6.72;90.29;100003.88;5011573;28;20049;-62
2024/03/09 07:20:47;;;;;;;63.35;40.28;;;6.60;99.90;;;6.46;90.62;100001.34;5011319;28;20050;-62
2024/03/09 07:23:15;;;;;;;62.42;39.42;;;6.40;99.90;;;6.25;91.48;100014.53;5011132;28;20048;-62
2024/03/09 07:25:44;;;;;;;62.90;40.75;;;6.20;99.90;;;6.16;92.56;100022.38;5011297;28;20069;-61
2024/03/09 07:28:14;;;;;;;63.92;41.08;;;6.10;99.90;;;6.15;93.02;100012.78;5011159;28;20446;-61
2024/03/09 07:30:43;;;;;;;66.45;40.58;;;6.00;99.90;;;6.20;93.11;100011.88;5011198;28;20068;-61
2024/03/09 07:33:11;;;;;;;65.97;40.40;;;6.10;99.90;;;6.37;93.22;100009.22;5011116;28;20115;-61
2024/03/09 07:35:43;;;;;;;67.22;42.20;;;6.20;99.90;;;6.58;92.39;100008.34;5010975;28;20050;-63
2024/03/09 07:38:12;;;;;;;61.65;39.03;;;6.30;99.90;;;6.22;92.36;100004.88;5011118;28;20076;-62
2024/03/09 07:40:43;;;;;;;61.95;38.70;;;6.20;99.90;;;6.26;93.65;100006.63;4993593;28;20145;-60
2024/03/09 07:43:17;;;;;;;61.42;39.45;;;6.20;99.90;;;6.45;92.63;99999.59;5010891;28;20085;-64
2024/03/09 07:45:46;;;;;;;60.92;39.55;;;6.30;99.90;;;6.36;92.94;99995.25;5011491;28;20045;-61
2024/03/09 07:48:16;;;;;;;61.40;38.13;;;6.20;99.90;;;6.36;93.03;100005.75;5010457;28;20092;-60
2024/03/09 07:50:48;;;;;;;60.90;39.13;;;6.20;99.90;;;6.64;92.70;100010.94;5010998;28;20125;-61
2024/03/09 07:53:17;;;;;;;60.95;38.08;;;6.40;99.90;;;6.76;92.32;100005.63;5010879;28;20107;-61
2024/03/09 07:55:46;;;;;;;60.80;37.72;;;6.50;99.90;;;6.82;91.07;100014.38;5010805;28;20529;-62
2024/03/09 07:58:15;;;;;;;53.97;35.05;;;6.70;99.90;;;6.91;90.41;100018.75;5010988;28;20049;-63
2024/03/09 08:00:53;;;;;;;59.75;37.25;;;6.70;99.90;;;7.07;90.46;100008.16;5011221;28;20160;-62
2024/03/09 08:03:23;;;;;;;59.63;37.03;;;6.90;99.90;;;6.93;90.11;100022.25;5010715;28;20034;-61
2024/03/09 08:05:53;;;;;;;57.50;37.50;;;6.80;99.90;;;7.04;90.19;100007.31;5010752;28;20050;-63
2024/03/09 08:08:22;;;;;;;56.40;35.72;;;6.90;99.90;;;7.13;90.41;100007.25;4993366;28;20053;-63
2024/03/09 08:10:53;;;;;;;55.30;36.17;;;6.90;99.90;;;7.19;90.10;100016.00;5010848;28;20116;-61
2024/03/09 08:13:22;;;;;;;60.05;36.35;;;7.00;99.90;;;7.19;90.37;99996.72;5010880;28;20469;-62
2024/03/09 08:15:56;;;;;;;58.78;36.55;;;7.00;99.90;;;7.47;89.08;99998.28;4993293;28;20046;-62
2024/03/09 08:18:24;;;;;;;53.33;34.80;;;7.30;99.90;;;7.76;88.10;99998.97;4993405;28;20136;-62
2024/03/09 08:20:58;;;;;;;51.30;34.28;;;7.50;99.90;;;7.97;86.60;100003.22;5011086;28;20038;-62
2024/03/09 08:23:27;;;;;;;53.10;35.05;;;7.70;99.90;;;7.88;86.57;100005.91;5010584;28;20065;-62
2024/03/09 08:25:58;;;;;;;50.97;33.47;;;7.80;99.90;;;7.89;86.64;100007.66;5010435;28;20045;-63
2024/03/09 08:28:26;;;;;;;49.28;34.03;;;7.70;99.90;;;8.12;85.88;100003.97;4993072;28;20057;-61
2024/03/09 08:30:55;;;;;;;51.97;33.30;;;7.90;99.90;;;8.14;85.15;99998.69;5010797;28;20462;-61
2024/03/09 08:33:25;;;;;;;51.80;33.20;;;8.00;99.90;;;8.23;86.21;99998.59;4993140;28;20141;-62
2024/03/09 08:35:58;;;;;;;49.72;31.77;;;8.00;99.90;;;8.55;84.53;99998.31;5010995;28;20096;-63
2024/03/09 08:38:26;;;;;;;49.70;33.08;;;8.30;99.90;;;8.46;83.14;99994.00;5010450;28;20058;-65
2024/03/09 08:40:55;;;;;;;51.35;33.75;;;8.30;99.90;;;8.73;83.74;99984.97;5010506;28;20065;-63
2024/03/09 08:43:25;;;;;;;45.40;30.98;;;8.50;99.90;;;9.00;83.30;99980.22;5010136;28;20070;-62
2024/03/09 08:45:55;;;;;;;50.03;31.95;;;8.70;99.90;;;8.93;82.19;99981.19;5010356;28;20049;-62
2024/03/09 08:48:23;;;;;;;47.78;31.65;;;8.80;99.90;;;8.69;83.58;99984.09;5010484;28;20038;-62
2024/03/09 08:50:52;;;;;;;48.40;31.35;;;8.60;99.90;;;8.53;83.50;99973.75;5010827;28;20139;-63
2024/03/09 08:53:21;;;;;;;48.60;31.60;;;8.40;99.90;;;8.58;84.22;99972.81;5010451;28;20050;-63
2024/03/09 08:55:51;;;;;;;50.25;31.98;;;8.40;99.90;;;9.27;84.64;99968.41;5010672;28;20042;-62
2024/03/09 08:58:20;;;;;;;48.88;31.65;;;8.90;99.90;;;9.09;82.65;99953.75;5010174;28;20457;-62
2024/03/09 09:00:48;;;;;;;44.00;29.88;;;8.90;99.90;;;9.70;82.16;99945.78;5013286;28;20112;-63
2024/03/09 09:03:17;;;;;;;44.08;29.80;;;9.40;99.90;;;9.48;80.77;99960.22;5013657;28;20069;-62
2024/03/09 09:05:47;;;;;;;41.78;30.08;;;9.40;99.90;;;9.60;81.50;99941.53;5013706;28;20395;-66
2024/03/09 09:08:24;;;;;;;41.15;28.67;;;9.40;99.90;;;9.81;79.90;99966.75;5013661;28;20064;-64
2024/03/09 09:10:55;;;;;;;42.22;28.90;;;9.60;99.90;;;9.76;80.09;99963.28;4996237;28;20050;-64
2024/03/09 09:13:24;;;;;;;44.00;29.85;;;9.60;99.90;;;9.66;80.82;99959.03;5013853;28;20116;-62
2024/03/09 09:15:53;;;;;;;42.13;29.45;;;9.50;99.90;;;9.88;80.97;99978.94;5013554;28;20398;-62
2024/03/09 09:18:23;;;;;;;40.72;27.40;;;9.70;99.90;;;9.71;79.73;99979.22;5013899;28;20073;-63
2024/03/09 09:20:52;;;;;;;39.50;28.25;;;9.60;99.90;;;9.62;81.69;99995.19;5013595;28;20038;-64
2024/03/09 09:23:21;;;;;;;39.28;27.67;;;9.40;99.90;;;9.62;81.36;99971.44;5013374;28;20041;-62
2024/03/09 09:25:51;;;;;;;41.33;28.38;;;9.40;99.90;;;10.04;81.30;99970.75;5013551;28;20103;-67
2024/03/09 09:28:22;;;;;;;41.05;29.02;;;9.70;99.90;;;10.25;80.05;99976.59;5013423;28;20495;-65
2024/03/09 09:30:50;;;;;;;37.05;26.88;;;10.00;99.90;;;10.35;78.99;99959.69;4995940;28;20069;-64
2024/03/09 09:33:19;;;;;;;38.58;27.23;;;10.20;99.90;;;10.71;78.45;99970.44;5013242;28;20664;-62
2024/03/09 09:35:48;;;;;;;39.50;27.85;;;10.40;99.90;;;10.85;78.08;99949.00;5013153;28;20045;-62
2024/03/09 09:38:17;;;;;;;38.08;26.45;;;10.60;99.90;;;10.79;78.04;99951.78;5013190;28;20053;-64
2024/03/09 09:40:52;;;;;;;40.03;28.75;;;10.50;99.90;;;11.04;77.92;99952.13;5013346;28;20119;-64
2024/03/09 09:43:23;;;;;;;37.33;26.52;;;10.80;99.90;;;11.23;75.99;99957.00;5013042;28;20487;-64
2024/03/09 09:45:55;;;;;;;38.90;26.27;;;11.00;99.90;;;11.07;75.34;99947.66;5013019;28;20050;-65
2024/03/09 09:48:32;;;;;;;38.33;27.33;;;10.90;99.90;;;11.29;75.43;99946.28;5012890;28;20046;-63
2024/03/09 09:51:03;;;;;;;35.38;25.85;;;11.10;99.90;;;11.57;76.08;99928.88;5013199;28;20506;-66
2024/03/09 09:53:33;;;;;;;34.83;24.60;;;11.30;99.90;;;11.59;73.14;99937.63;5012949;28;20541;-64
2024/03/09 09:56:02;;;;;;;;;;;11.40;99.90;;;11.41;74.27;99939.84;5013399;28;20565;-65
2024/03/09 09:58:32;;;;;;;35.85;25.83;;;11.20;99.90;;;11.92;74.36;99929.84;5012569;28;19921;-65
2024/03/09 10:01:02;;;;;;;35.78;24.88;;;11.60;99.90;;;12.28;72.33;99923.56;5012532;28;20134;-65
2024/03/09 10:03:34;;;;;;;32.35;22.80;;;11.90;99.90;;;11.45;72.23;99921.22;4995275;28;20096;-64
2024/03/09 10:06:18;;;;;;;30.73;21.70;;;11.50;99.90;;;11.79;73.19;99942.50;5012734;28;20056;-63
2024/03/09 10:08:50;;;;;;;29.95;21.98;;;11.50;99.90;;;11.88;72.53;99938.75;5012876;28;20046;-65
2024/03/09 10:11:22;;;;;;;41.60;24.42;;;11.60;99.90;;;12.16;71.81;99935.38;5012583;28;20052;-79
2024/03/09 10:13:59;;;;;;;31.23;23.23;;;11.90;99.90;;;12.46;72.36;99923.09;5012550;28;20128;-79
2024/03/09 10:16:28;;;;;;;32.78;22.48;;;12.20;99.90;;;12.55;72.13;99907.78;5012425;28;20057;-81
2024/03/09 10:18:59;;;;;;;27.67;21.55;;;12.20;99.90;;;12.28;70.26;99902.38;5012344;28;20061;-81
2024/03/09 10:21:30;;;;;;;28.73;21.65;;;12.20;99.90;;;12.78;70.52;99901.81;5012644;28;20220;-79
2024/03/09 10:24:03;;;;;;;28.88;22.38;;;12.50;99.90;;;12.95;70.87;99928.75;4994882;28;20069;-80
2024/03/09 10:26:31;;;;;;;31.25;21.08;;;12.70;99.90;;;12.59;69.09;99908.56;4994738;28;20054;-72
2024/03/09 10:29:03;;;;;;;31.52;23.30;;;12.40;99.90;;;12.22;70.81;99902.53;5012134;28;20053;-80